Главная страница
METAR-TAF:

METAR-TAF

Аэропорты :

Вена-Швехат

Вена, Австрия

широта: 48-07N, долгота: 016-34E, высота над уровнем моря: 183 м

Текущие метеонаблюдения

Эта сводка был подготовлена 12 минут назад, в 20:50 UTC
Ветер 8 Узел от западный-юго-западный
Температура 27°C
Влажность 48%
Давление 1016 hPa
Видимость 10 км и более
Нет облачности ниже 1500 м, и нет кучево-дождевой облачности

METAR: LOWW 202050Z 24008KT CAVOK 27/15 Q1016 NOSIG

Время: 23:02 (21:02 UTC)

Прогноз

Эта сводка был подготовлена 47 минут назад, в 20:15 UTC
Прогноз действительный с 20-го 21 UTC до 22-го 03 UTC
Ветер 5 Узел от западно-северо-западный
Видимость 10 км и более
Нет облачности ниже 1500 м, и нет кучево-дождевой облачности
изменения
С 21-го 06 UTC до 21-го 09 UTC
Ветер 13 Узел от северный
изменения
С 21-го 16 UTC до 21-го 19 UTC
Ветер 6 Узел от северо-северо-восточный

TAF: LOWW 202015Z 2021/2203 30005KT CAVOK TX33/2114Z TN20/2203Z BECMG 2106/2109 35013KT BECMG 2116/2119 02006KT

Метеонаблюдения и прогнозы для более 4000 аэропортов (сводки METAR и TAF).

Имеющиеся станции представлены на карте желтыми и красными точками.

Чтобы увидеть название станции, наведите на нее мышь.

Затем щелкните, чтобы увидеть метеонаблюдения и метеопрогнозы.

Управление картой: чтобы увеличить масштаб, щелкните зеленые кнопки с черным крестиком; чтобы уменьшить масштаб, щелкните зеленую кнопку с тире; для просмотра соседних карт щелкайте зеленые стрелки.


METAR-TAF: